Nashotah, Wisconsin
Current Conditions -  °F | °C
As of 10:45 AM on Thursday 23 Oct 2014 (Local Time) from KUES Reporting Station
Clear Clear  
Wind Chill: 43°   Ceiling: Unl
Heat Index: 46°   Visibility: 10mi
Dew Point: 39°   Wind: 7mph
Humidity: 76%   Direction: 210°SSW
Pressure: 30.18"   Gusts: NA
Location:  43.1°N, 88.4°W
Report Text: KUES 231545Z 21006KT 10SM SKC 08/04 A3018
Loading
Personal Weather Stations






























Interactive Weather Map
Tropical Storm Tracking
New forecast layout! Learn more

10-Day Weather Forecast

Advertisements
Track Severe Weather on mobile